sensor_id;sensor_type;location;lat;lon;timestamp;pressure;altitude;pressure_sealevel;temperature;humidity
5780;BME280;2916;49.798;10.022;2023-05-09T00:02:13;147753.00;;;14.09;80.90
5780;BME280;2916;49.798;10.022;2023-05-09T00:04:42;147733.09;;;14.01;80.95
5780;BME280;2916;49.798;10.022;2023-05-09T00:07:09;147735.56;;;14.02;81.05
5780;BME280;2916;49.798;10.022;2023-05-09T00:09:36;147736.81;;;14.03;81.25
5780;BME280;2916;49.798;10.022;2023-05-09T00:12:43;147724.38;;;13.97;81.19
5780;BME280;2916;49.798;10.022;2023-05-09T00:15:11;147723.16;;;13.97;81.22
5780;BME280;2916;49.798;10.022;2023-05-09T00:18:30;147700.78;;;13.88;81.79
5780;BME280;2916;49.798;10.022;2023-05-09T00:21:39;147688.31;;;13.83;81.66
5780;BME280;2916;49.798;10.022;2023-05-09T00:27:06;147670.94;;;13.75;82.03
5780;BME280;2916;49.798;10.022;2023-05-09T00:29:33;147622.41;;;13.56;82.56
5780;BME280;2916;49.798;10.022;2023-05-09T00:32:00;147647.28;;;13.66;82.57
5780;BME280;2916;49.798;10.022;2023-05-09T00:34:27;147636.09;;;13.61;82.76
5780;BME280;2916;49.798;10.022;2023-05-09T00:37:00;147623.69;;;13.56;82.69
5780;BME280;2916;49.798;10.022;2023-05-09T00:39:31;147639.81;;;13.63;82.56
5780;BME280;2916;49.798;10.022;2023-05-09T00:42:00;147632.38;;;13.60;81.89
5780;BME280;2916;49.798;10.022;2023-05-09T00:44:28;147603.78;;;13.48;82.22
5780;BME280;2916;49.798;10.022;2023-05-09T00:46:55;147587.59;;;13.41;82.85
5780;BME280;2916;49.798;10.022;2023-05-09T00:49:22;147559.00;;;13.30;83.00
5780;BME280;2916;49.798;10.022;2023-05-09T00:51:49;147580.13;;;13.38;82.32
5780;BME280;2916;49.798;10.022;2023-05-09T00:54:25;147578.91;;;13.38;82.83
5780;BME280;2916;49.798;10.022;2023-05-09T00:57:20;147586.38;;;13.41;82.29
5780;BME280;2916;49.798;10.022;2023-05-09T00:59:58;147571.44;;;13.35;82.39
5780;BME280;2916;49.798;10.022;2023-05-09T01:02:30;147499.31;;;13.05;82.64
5780;BME280;2916;49.798;10.022;2023-05-09T01:04:57;147551.53;;;13.26;83.26
5780;BME280;2916;49.798;10.022;2023-05-09T01:07:34;147517.94;;;13.13;83.83
5780;BME280;2916;49.798;10.022;2023-05-09T01:10:15;147372.50;;;12.53;84.11
5780;BME280;2916;49.798;10.022;2023-05-09T01:13:03;147484.38;;;12.99;84.50
5780;BME280;2916;49.798;10.022;2023-05-09T01:15:40;147449.53;;;12.85;84.90
5780;BME280;2916;49.798;10.022;2023-05-09T01:18:14;147444.59;;;12.83;85.27
5780;BME280;2916;49.798;10.022;2023-05-09T01:20:46;147449.53;;;12.85;85.34
5780;BME280;2916;49.798;10.022;2023-05-09T01:23:47;147448.31;;;12.84;85.37
5780;BME280;2916;49.798;10.022;2023-05-09T01:26:35;147459.47;;;12.89;84.93
5780;BME280;2916;49.798;10.022;2023-05-09T01:29:36;147475.66;;;12.95;84.50
5780;BME280;2916;49.798;10.022;2023-05-09T01:32:09;147494.31;;;13.03;83.85
5780;BME280;2916;49.798;10.022;2023-05-09T01:34:39;147499.31;;;13.05;83.81
5780;BME280;2916;49.798;10.022;2023-05-09T01:37:08;147506.72;;;13.08;83.68
5780;BME280;2916;49.798;10.022;2023-05-09T01:39:40;147503.00;;;13.07;83.58
5780;BME280;2916;49.798;10.022;2023-05-09T01:42:10;147510.47;;;13.10;83.33
5780;BME280;2916;49.798;10.022;2023-05-09T01:44:41;147491.81;;;13.02;83.92
5780;BME280;2916;49.798;10.022;2023-05-09T01:47:10;147476.88;;;12.96;84.29
5780;BME280;2916;49.798;10.022;2023-05-09T01:49:40;147480.66;;;12.97;84.61
5780;BME280;2916;49.798;10.022;2023-05-09T01:52:13;147459.47;;;12.89;84.65
5780;BME280;2916;49.798;10.022;2023-05-09T01:54:41;147444.59;;;12.83;84.67
5780;BME280;2916;49.798;10.022;2023-05-09T01:57:11;147444.59;;;12.83;84.65
5780;BME280;2916;49.798;10.022;2023-05-09T01:59:44;147462.00;;;12.90;85.09
5780;BME280;2916;49.798;10.022;2023-05-09T02:02:12;147447.06;;;12.84;85.50
5780;BME280;2916;49.798;10.022;2023-05-09T02:04:42;147442.13;;;12.82;86.42
5780;BME280;2916;49.798;10.022;2023-05-09T02:07:11;147428.41;;;12.76;87.09
5780;BME280;2916;49.798;10.022;2023-05-09T02:09:38;147412.31;;;12.69;87.43
5780;BME280;2916;49.798;10.022;2023-05-09T02:12:06;147399.84;;;12.64;87.82
5780;BME280;2916;49.798;10.022;2023-05-09T02:14:33;147393.66;;;12.62;87.79
5780;BME280;2916;49.798;10.022;2023-05-09T02:17:02;147399.84;;;12.64;87.70
5780;BME280;2916;49.798;10.022;2023-05-09T02:19:33;147401.06;;;12.65;87.27
5780;BME280;2916;49.798;10.022;2023-05-09T02:22:01;147399.84;;;12.64;87.04
5780;BME280;2916;49.798;10.022;2023-05-09T02:24:32;147419.72;;;12.72;86.96
5780;BME280;2916;49.798;10.022;2023-05-09T02:27:01;147409.78;;;12.68;87.40
5780;BME280;2916;49.798;10.022;2023-05-09T02:29:34;147403.59;;;12.66;87.40
5780;BME280;2916;49.798;10.022;2023-05-09T02:32:10;147412.31;;;12.69;87.94
5780;BME280;2916;49.798;10.022;2023-05-09T02:34:39;147397.38;;;12.63;87.57
5780;BME280;2916;49.798;10.022;2023-05-09T02:37:09;147407.31;;;12.67;87.60
5780;BME280;2916;49.798;10.022;2023-05-09T02:39:36;147409.78;;;12.68;88.07
5780;BME280;2916;49.798;10.022;2023-05-09T02:42:09;147404.84;;;12.66;87.83
5780;BME280;2916;49.798;10.022;2023-05-09T02:44:37;147412.31;;;12.69;87.49
5780;BME280;2916;49.798;10.022;2023-05-09T02:47:06;147384.94;;;12.58;88.38
5780;BME280;2916;49.798;10.022;2023-05-09T02:49:33;147357.63;;;12.47;88.49
5780;BME280;2916;49.798;10.022;2023-05-09T02:52:01;147355.13;;;12.46;88.92
5780;BME280;2916;49.798;10.022;2023-05-09T02:54:28;147342.69;;;12.41;88.77
5780;BME280;2916;49.798;10.022;2023-05-09T02:56:56;147345.19;;;12.42;88.96
5780;BME280;2916;49.798;10.022;2023-05-09T02:59:25;147327.78;;;12.35;88.61
5780;BME280;2916;49.798;10.022;2023-05-09T03:01:52;147337.72;;;12.39;88.75
5780;BME280;2916;49.798;10.022;2023-05-09T03:04:21;147333.97;;;12.37;88.85
5780;BME280;2916;49.798;10.022;2023-05-09T03:06:48;147320.31;;;12.32;88.81
5780;BME280;2916;49.798;10.022;2023-05-09T03:09:15;147307.91;;;12.26;89.25
5780;BME280;2916;49.798;10.022;2023-05-09T03:11:42;147307.91;;;12.26;89.30
5780;BME280;2916;49.798;10.022;2023-05-09T03:14:09;147312.88;;;12.28;88.89
5780;BME280;2916;49.798;10.022;2023-05-09T03:16:38;147307.91;;;12.26;89.09
5780;BME280;2916;49.798;10.022;2023-05-09T03:19:05;147309.16;;;12.27;89.07
5780;BME280;2916;49.798;10.022;2023-05-09T03:21:34;147305.41;;;12.25;88.48
5780;BME280;2916;49.798;10.022;2023-05-09T03:24:01;147317.84;;;12.31;88.50
5780;BME280;2916;49.798;10.022;2023-05-09T03:26:29;147315.34;;;12.29;88.11
5780;BME280;2916;49.798;10.022;2023-05-09T03:28:57;147322.81;;;12.33;87.79
5780;BME280;2916;49.798;10.022;2023-05-09T03:31:24;147332.75;;;12.37;87.39
5780;BME280;2916;49.798;10.022;2023-05-09T03:33:51;147336.50;;;12.38;87.26
5780;BME280;2916;49.798;10.022;2023-05-09T03:36:19;147335.22;;;12.38;87.21
5780;BME280;2916;49.798;10.022;2023-05-09T03:38:47;147336.50;;;12.38;88.58
5780;BME280;2916;49.798;10.022;2023-05-09T03:41:16;147317.84;;;12.31;88.68
5780;BME280;2916;49.798;10.022;2023-05-09T03:43:43;147320.31;;;12.32;88.34
5780;BME280;2916;49.798;10.022;2023-05-09T03:46:10;147315.34;;;12.29;87.92
5780;BME280;2916;49.798;10.022;2023-05-09T03:48:38;147327.78;;;12.35;87.58
5780;BME280;2916;49.798;10.022;2023-05-09T03:51:05;147352.63;;;12.45;86.50
5780;BME280;2916;49.798;10.022;2023-05-09T03:53:32;147346.44;;;12.42;87.14
5780;BME280;2916;49.798;10.022;2023-05-09T03:56:00;147316.63;;;12.30;87.57
5780;BME280;2916;49.798;10.022;2023-05-09T03:58:28;147309.16;;;12.27;88.41
5780;BME280;2916;49.798;10.022;2023-05-09T04:00:55;147311.63;;;12.28;89.24
5780;BME280;2916;49.798;10.022;2023-05-09T04:03:22;147289.28;;;12.19;89.12
5780;BME280;2916;49.798;10.022;2023-05-09T04:05:50;147288.03;;;12.18;89.29
5780;BME280;2916;49.798;10.022;2023-05-09T04:08:17;147285.53;;;12.17;89.36
5780;BME280;2916;49.798;10.022;2023-05-09T04:10:44;147288.03;;;12.18;89.26
5780;BME280;2916;49.798;10.022;2023-05-09T04:13:13;147307.91;;;12.26;89.37
5780;BME280;2916;49.798;10.022;2023-05-09T04:15:40;147314.09;;;12.29;89.51
5780;BME280;2916;49.798;10.022;2023-05-09T04:18:07;147302.94;;;12.24;89.50
5780;BME280;2916;49.798;10.022;2023-05-09T04:20:34;147309.16;;;12.27;89.28
5780;BME280;2916;49.798;10.022;2023-05-09T04:23:01;147322.81;;;12.33;89.74
5780;BME280;2916;49.798;10.022;2023-05-09T04:25:29;147310.38;;;12.27;89.82
5780;BME280;2916;49.798;10.022;2023-05-09T04:27:56;147320.31;;;12.32;89.96
5780;BME280;2916;49.798;10.022;2023-05-09T04:30:25;147332.75;;;12.37;89.80
5780;BME280;2916;49.798;10.022;2023-05-09T04:32:52;147337.72;;;12.39;90.11
5780;BME280;2916;49.798;10.022;2023-05-09T04:35:20;147351.38;;;12.44;90.24
5780;BME280;2916;49.798;10.022;2023-05-09T04:37:47;147350.16;;;12.44;89.84
5780;BME280;2916;49.798;10.022;2023-05-09T04:40:14;147377.50;;;12.55;89.65
5780;BME280;2916;49.798;10.022;2023-05-09T04:42:41;147398.59;;;12.64;89.18
5780;BME280;2916;49.798;10.022;2023-05-09T04:45:10;147432.19;;;12.77;88.46
5780;BME280;2916;49.798;10.022;2023-05-09T04:47:38;147457.00;;;12.88;88.03
5780;BME280;2916;49.798;10.022;2023-05-09T04:50:07;147479.41;;;12.97;87.49
5780;BME280;2916;49.798;10.022;2023-05-09T04:52:34;147506.72;;;13.08;87.44
5780;BME280;2916;49.798;10.022;2023-05-09T04:55:01;147544.06;;;13.23;86.64
5780;BME280;2916;49.798;10.022;2023-05-09T04:57:28;147572.66;;;13.35;85.53
5780;BME280;2916;49.798;10.022;2023-05-09T04:59:56;147616.19;;;13.53;84.92
5780;BME280;2916;49.798;10.022;2023-05-09T05:02:23;147654.75;;;13.69;85.11
5780;BME280;2916;49.798;10.022;2023-05-09T05:04:52;147683.34;;;13.81;84.82
5780;BME280;2916;49.798;10.022;2023-05-09T05:07:19;147687.06;;;13.82;84.37
5780;BME280;2916;49.798;10.022;2023-05-09T05:09:46;147725.63;;;13.98;83.65
5780;BME280;2916;49.798;10.022;2023-05-09T05:12:14;147743.06;;;14.05;83.05
5780;BME280;2916;49.798;10.022;2023-05-09T05:14:41;147782.84;;;14.21;83.25
5780;BME280;2916;49.798;10.022;2023-05-09T05:17:14;147730.63;;;14.00;82.36
5780;BME280;2916;49.798;10.022;2023-05-09T05:19:42;147728.16;;;13.99;82.29
5780;BME280;2916;49.798;10.022;2023-05-09T05:22:11;147736.81;;;14.03;81.52
5780;BME280;2916;49.798;10.022;2023-05-09T05:24:38;147754.25;;;14.10;81.33
5780;BME280;2916;49.798;10.022;2023-05-09T05:27:05;147758.00;;;14.11;79.98
5780;BME280;2916;49.798;10.022;2023-05-09T05:29:33;147758.00;;;14.11;80.09
5780;BME280;2916;49.798;10.022;2023-05-09T05:32:00;147766.72;;;14.15;79.27
5780;BME280;2916;49.798;10.022;2023-05-09T05:34:27;147758.00;;;14.11;79.02
5780;BME280;2916;49.798;10.022;2023-05-09T05:36:54;147782.84;;;14.21;78.95
5780;BME280;2916;49.798;10.022;2023-05-09T05:39:23;147811.47;;;14.33;79.14
5780;BME280;2916;49.798;10.022;2023-05-09T05:41:50;147802.75;;;14.30;78.83
5780;BME280;2916;49.798;10.022;2023-05-09T05:44:17;147804.00;;;14.30;78.53
5780;BME280;2916;49.798;10.022;2023-05-09T05:46:44;147850.06;;;14.49;78.23
5780;BME280;2916;49.798;10.022;2023-05-09T05:49:12;147837.59;;;14.44;77.44
5780;BME280;2916;49.798;10.022;2023-05-09T05:51:39;147827.66;;;14.40;76.68
5780;BME280;2916;49.798;10.022;2023-05-09T05:54:06;147904.84;;;14.71;75.41
5780;BME280;2916;49.798;10.022;2023-05-09T05:56:34;147993.19;;;15.08;73.63
5780;BME280;2916;49.798;10.022;2023-05-09T05:59:02;148085.34;;;15.45;71.19
5780;BME280;2916;49.798;10.022;2023-05-09T06:01:29;148123.94;;;15.61;69.89
5780;BME280;2916;49.798;10.022;2023-05-09T06:03:56;148188.75;;;15.88;67.78
5780;BME280;2916;49.798;10.022;2023-05-09T06:06:25;148186.22;;;15.87;67.74
5780;BME280;2916;49.798;10.022;2023-05-09T06:08:53;148233.56;;;16.06;65.67
5780;BME280;2916;49.798;10.022;2023-05-09T06:11:20;148229.84;;;16.05;65.63
5780;BME280;2916;49.798;10.022;2023-05-09T06:13:49;148327.00;;;16.44;64.50
5780;BME280;2916;49.798;10.022;2023-05-09T06:16:16;148284.66;;;16.27;63.73
5780;BME280;2916;49.798;10.022;2023-05-09T06:18:43;148248.53;;;16.12;62.03
5780;BME280;2916;49.798;10.022;2023-05-09T06:21:11;148177.50;;;15.83;62.68
5780;BME280;2916;49.798;10.022;2023-05-09T06:23:38;148136.44;;;15.66;62.41
5780;BME280;2916;49.798;10.022;2023-05-09T06:26:05;148087.81;;;15.46;62.30
5780;BME280;2916;49.798;10.022;2023-05-09T06:28:32;148122.69;;;15.61;62.78
5780;BME280;2916;49.798;10.022;2023-05-09T06:31:01;148130.13;;;15.64;62.43
5780;BME280;2916;49.798;10.022;2023-05-09T06:33:28;148161.34;;;15.77;63.58
5780;BME280;2916;49.798;10.022;2023-05-09T06:35:55;148096.53;;;15.50;61.93
5780;BME280;2916;49.798;10.022;2023-05-09T06:38:22;148131.41;;;15.64;61.94
5780;BME280;2916;49.798;10.022;2023-05-09T06:40:49;148153.88;;;15.74;61.13
5780;BME280;2916;49.798;10.022;2023-05-09T06:43:16;148243.53;;;16.10;60.43
5780;BME280;2916;49.798;10.022;2023-05-09T06:45:44;148322.00;;;16.42;59.80
5780;BME280;2916;49.798;10.022;2023-05-09T06:48:12;148363.13;;;16.59;59.03
5780;BME280;2916;49.798;10.022;2023-05-09T06:50:39;148339.44;;;16.50;57.79
5780;BME280;2916;49.798;10.022;2023-05-09T06:53:06;148428.00;;;16.86;58.25
5780;BME280;2916;49.798;10.022;2023-05-09T06:55:34;148481.56;;;17.08;57.69
5780;BME280;2916;49.798;10.022;2023-05-09T06:58:02;148510.22;;;17.20;57.46
5780;BME280;2916;49.798;10.022;2023-05-09T07:00:29;148555.13;;;17.38;56.70
5780;BME280;2916;49.798;10.022;2023-05-09T07:02:57;148500.25;;;17.15;56.76
5780;BME280;2916;49.798;10.022;2023-05-09T07:05:25;148393.03;;;16.72;57.01
5780;BME280;2916;49.798;10.022;2023-05-09T07:07:52;148363.13;;;16.59;57.96
5780;BME280;2916;49.798;10.022;2023-05-09T07:10:20;148364.38;;;16.60;57.37
5780;BME280;2916;49.798;10.022;2023-05-09T07:12:48;148365.63;;;16.60;57.43
5780;BME280;2916;49.798;10.022;2023-05-09T07:15:15;148300.81;;;16.34;57.34
5780;BME280;2916;49.798;10.022;2023-05-09T07:17:43;148300.81;;;16.34;57.33
5780;BME280;2916;49.798;10.022;2023-05-09T07:20:10;148303.34;;;16.35;56.83
5780;BME280;2916;49.798;10.022;2023-05-09T07:22:39;148272.19;;;16.22;56.79
5780;BME280;2916;49.798;10.022;2023-05-09T07:25:07;148318.28;;;16.41;56.86
5780;BME280;2916;49.798;10.022;2023-05-09T07:27:35;148398.06;;;16.74;56.57
5780;BME280;2916;49.798;10.022;2023-05-09T07:30:03;148440.44;;;16.91;55.67
5780;BME280;2916;49.798;10.022;2023-05-09T07:32:30;148582.56;;;17.49;55.72
5780;BME280;2916;49.798;10.022;2023-05-09T07:34:58;148543.91;;;17.33;54.27
5780;BME280;2916;49.798;10.022;2023-05-09T07:37:25;148509.00;;;17.19;55.00
5780;BME280;2916;49.798;10.022;2023-05-09T07:39:53;148530.16;;;17.28;55.23
5780;BME280;2916;49.798;10.022;2023-05-09T07:42:21;148603.75;;;17.58;54.94
5780;BME280;2916;49.798;10.022;2023-05-09T07:44:48;148597.47;;;17.55;55.69
5780;BME280;2916;49.798;10.022;2023-05-09T07:47:15;148711.00;;;18.02;54.96
5780;BME280;2916;49.798;10.022;2023-05-09T07:49:42;148686.06;;;17.91;54.51
5780;BME280;2916;49.798;10.022;2023-05-09T07:52:11;148679.84;;;17.89;54.99
5780;BME280;2916;49.798;10.022;2023-05-09T07:54:38;148679.84;;;17.89;54.75
5780;BME280;2916;49.798;10.022;2023-05-09T07:57:07;148711.00;;;18.02;54.35
5780;BME280;2916;49.798;10.022;2023-05-09T07:59:34;148815.78;;;18.45;54.27
5780;BME280;2916;49.798;10.022;2023-05-09T08:02:01;148889.44;;;18.75;54.78
5780;BME280;2916;49.798;10.022;2023-05-09T08:04:28;148959.31;;;19.03;53.40
5780;BME280;2916;49.798;10.022;2023-05-09T08:06:56;149079.09;;;19.52;51.79
5780;BME280;2916;49.798;10.022;2023-05-09T08:09:24;149042.94;;;19.37;52.18
5780;BME280;2916;49.798;10.022;2023-05-09T08:11:52;149186.53;;;19.96;50.16
5780;BME280;2916;49.798;10.022;2023-05-09T08:14:20;149062.91;;;19.46;51.44
5780;BME280;2916;49.798;10.022;2023-05-09T08:16:47;149245.25;;;20.20;51.88
5780;BME280;2916;49.798;10.022;2023-05-09T08:19:15;149226.50;;;20.13;51.01
5780;BME280;2916;49.798;10.022;2023-05-09T08:21:42;148969.28;;;19.07;52.79
5780;BME280;2916;49.798;10.022;2023-05-09T08:24:09;149031.69;;;19.33;52.96
5780;BME280;2916;49.798;10.022;2023-05-09T08:26:37;149091.63;;;19.57;53.47
5780;BME280;2916;49.798;10.022;2023-05-09T08:29:04;148936.81;;;18.94;52.63
5780;BME280;2916;49.798;10.022;2023-05-09T08:31:33;148871.94;;;18.68;52.42
5780;BME280;2916;49.798;10.022;2023-05-09T08:34:00;148906.88;;;18.82;52.98
5780;BME280;2916;49.798;10.022;2023-05-09T08:36:27;148813.31;;;18.44;51.73
5780;BME280;2916;49.798;10.022;2023-05-09T08:38:55;148860.72;;;18.63;51.49
5780;BME280;2916;49.798;10.022;2023-05-09T08:41:25;148777.13;;;18.29;51.65
5780;BME280;2916;49.798;10.022;2023-05-09T08:43:53;148744.66;;;18.15;51.87
5780;BME280;2916;49.798;10.022;2023-05-09T08:46:28;148949.34;;;18.99;53.72
5780;BME280;2916;49.798;10.022;2023-05-09T08:48:59;148966.81;;;19.06;53.76
5780;BME280;2916;49.798;10.022;2023-05-09T08:51:29;148996.75;;;19.19;52.82
5780;BME280;2916;49.798;10.022;2023-05-09T08:53:57;148943.09;;;18.97;53.73
5780;BME280;2916;49.798;10.022;2023-05-09T08:56:25;148910.66;;;18.83;52.92
5780;BME280;2916;49.798;10.022;2023-05-09T08:58:54;148984.25;;;19.13;52.94
5780;BME280;2916;49.798;10.022;2023-05-09T09:01:22;149074.13;;;19.50;51.31
5780;BME280;2916;49.798;10.022;2023-05-09T09:03:51;149061.63;;;19.45;50.32
5780;BME280;2916;49.798;10.022;2023-05-09T09:06:20;149086.59;;;19.55;50.64
5780;BME280;2916;49.798;10.022;2023-05-09T09:08:53;149099.06;;;19.60;51.46
5780;BME280;2916;49.798;10.022;2023-05-09T09:11:21;149031.69;;;19.33;47.49
5780;BME280;2916;49.798;10.022;2023-05-09T09:13:51;149039.19;;;19.36;48.69
5780;BME280;2916;49.798;10.022;2023-05-09T09:16:21;149079.09;;;19.52;42.97
5780;BME280;2916;49.798;10.022;2023-05-09T09:18:53;149141.59;;;19.78;40.33
5780;BME280;2916;49.798;10.022;2023-05-09T09:21:22;149162.81;;;19.86;41.05
5780;BME280;2916;49.798;10.022;2023-05-09T09:23:54;149216.53;;;20.08;40.64
5780;BME280;2916;49.798;10.022;2023-05-09T09:26:21;149204.00;;;20.03;40.05
5780;BME280;2916;49.798;10.022;2023-05-09T09:28:49;149220.25;;;20.10;39.94
5780;BME280;2916;49.798;10.022;2023-05-09T09:31:21;149226.50;;;20.13;39.93
5780;BME280;2916;49.798;10.022;2023-05-09T09:33:49;149287.69;;;20.38;41.64
5780;BME280;2916;49.798;10.022;2023-05-09T09:36:27;149363.94;;;20.69;41.34
5780;BME280;2916;49.798;10.022;2023-05-09T09:39:00;149391.41;;;20.80;41.21
5780;BME280;2916;49.798;10.022;2023-05-09T09:41:31;149368.91;;;20.71;41.88
5780;BME280;2916;49.798;10.022;2023-05-09T09:44:05;149483.84;;;21.18;42.25
5780;BME280;2916;49.798;10.022;2023-05-09T09:46:41;149375.16;;;20.73;40.69
5780;BME280;2916;49.798;10.022;2023-05-09T09:49:10;149395.16;;;20.81;40.88
5780;BME280;2916;49.798;10.022;2023-05-09T09:51:39;149337.69;;;20.58;41.75
5780;BME280;2916;49.798;10.022;2023-05-09T09:54:07;149438.91;;;20.99;41.75
5780;BME280;2916;49.798;10.022;2023-05-09T09:56:40;149338.94;;;20.58;41.55
5780;BME280;2916;49.798;10.022;2023-05-09T09:59:08;149410.16;;;20.88;40.48
5780;BME280;2916;49.798;10.022;2023-05-09T10:01:53;149395.16;;;20.81;42.14
5780;BME280;2916;49.798;10.022;2023-05-09T10:04:21;149447.66;;;21.03;40.90
5780;BME280;2916;49.798;10.022;2023-05-09T10:06:54;149461.38;;;21.08;41.95
5780;BME280;2916;49.798;10.022;2023-05-09T10:09:23;149486.38;;;21.19;41.41
5780;BME280;2916;49.798;10.022;2023-05-09T10:11:52;149518.84;;;21.32;41.14
5780;BME280;2916;49.798;10.022;2023-05-09T10:14:22;149618.84;;;21.73;41.32
5780;BME280;2916;49.798;10.022;2023-05-09T10:16:53;149627.63;;;21.76;40.98
5780;BME280;2916;49.798;10.022;2023-05-09T10:19:23;149675.13;;;21.96;40.41
5780;BME280;2916;49.798;10.022;2023-05-09T10:21:54;149677.66;;;21.97;39.68
5780;BME280;2916;49.798;10.022;2023-05-09T10:24:27;149663.88;;;21.91;39.61
5780;BME280;2916;49.798;10.022;2023-05-09T10:27:02;149740.19;;;22.22;39.74
5780;BME280;2916;49.798;10.022;2023-05-09T10:29:34;149686.34;;;22.00;39.47
5780;BME280;2916;49.798;10.022;2023-05-09T10:32:13;149828.94;;;22.59;38.49
5780;BME280;2916;49.798;10.022;2023-05-09T10:34:46;149866.47;;;22.74;39.03
5780;BME280;2916;49.798;10.022;2023-05-09T10:37:16;149745.22;;;22.24;38.35
5780;BME280;2916;49.798;10.022;2023-05-09T10:39:45;149723.91;;;22.16;37.81
5780;BME280;2916;49.798;10.022;2023-05-09T10:42:18;149771.44;;;22.35;38.91
5780;BME280;2916;49.798;10.022;2023-05-09T10:44:46;149863.97;;;22.73;37.43
5780;BME280;2916;49.798;10.022;2023-05-09T10:47:14;149818.94;;;22.54;38.92
5780;BME280;2916;49.798;10.022;2023-05-09T10:49:43;149730.19;;;22.18;40.10
5780;BME280;2916;49.798;10.022;2023-05-09T10:52:11;149723.91;;;22.16;37.05
5780;BME280;2916;49.798;10.022;2023-05-09T10:54:40;149761.44;;;22.31;35.73
5780;BME280;2916;49.798;10.022;2023-05-09T10:57:08;149700.13;;;22.06;35.82
5780;BME280;2916;49.798;10.022;2023-05-09T10:59:38;149728.94;;;22.18;37.37
5780;BME280;2916;49.798;10.022;2023-05-09T11:02:12;149832.72;;;22.60;38.35
5780;BME280;2916;49.798;10.022;2023-05-09T11:04:40;149896.47;;;22.86;37.91
5780;BME280;2916;49.798;10.022;2023-05-09T11:07:22;149721.44;;;22.15;37.09
5780;BME280;2916;49.798;10.022;2023-05-09T11:10:06;149816.47;;;22.53;36.95
5780;BME280;2916;49.798;10.022;2023-05-09T11:12:51;149683.88;;;21.99;37.43
5780;BME280;2916;49.798;10.022;2023-05-09T11:15:19;149746.44;;;22.25;38.14
5780;BME280;2916;49.798;10.022;2023-05-09T11:18:03;149752.66;;;22.27;37.33
5780;BME280;2916;49.798;10.022;2023-05-09T11:20:33;149786.44;;;22.41;38.61
5780;BME280;2916;49.798;10.022;2023-05-09T11:23:03;149961.59;;;23.13;38.83
5780;BME280;2916;49.798;10.022;2023-05-09T11:25:33;149900.25;;;22.88;36.39
5780;BME280;2916;49.798;10.022;2023-05-09T11:28:01;149894.00;;;22.85;37.04
5780;BME280;2916;49.798;10.022;2023-05-09T11:30:40;149826.47;;;22.58;37.03
5780;BME280;2916;49.798;10.022;2023-05-09T11:33:21;149841.50;;;22.64;38.13
5780;BME280;2916;49.798;10.022;2023-05-09T11:36:14;149916.53;;;22.94;37.51
5780;BME280;2916;49.798;10.022;2023-05-09T11:38:43;149962.81;;;23.13;36.96
5780;BME280;2916;49.798;10.022;2023-05-09T11:41:12;149922.81;;;22.97;37.03
5780;BME280;2916;49.798;10.022;2023-05-09T11:43:42;149837.72;;;22.62;37.09
5780;BME280;2916;49.798;10.022;2023-05-09T11:46:10;149951.56;;;23.09;37.20
5780;BME280;2916;49.798;10.022;2023-05-09T11:48:37;149992.84;;;23.25;38.08
5780;BME280;2916;49.798;10.022;2023-05-09T11:51:05;149959.09;;;23.12;36.85
5780;BME280;2916;49.798;10.022;2023-05-09T11:53:32;150019.13;;;23.36;37.37
5780;BME280;2916;49.798;10.022;2023-05-09T11:56:04;150009.13;;;23.32;37.32
5780;BME280;2916;49.798;10.022;2023-05-09T11:58:37;149961.59;;;23.13;37.20
5780;BME280;2916;49.798;10.022;2023-05-09T12:01:05;149843.97;;;22.65;37.21
5780;BME280;2916;49.798;10.022;2023-05-09T12:03:32;149915.28;;;22.94;37.80
5780;BME280;2916;49.798;10.022;2023-05-09T12:05:59;149966.59;;;23.15;38.40
5780;BME280;2916;49.798;10.022;2023-05-09T12:08:27;149803.97;;;22.48;38.08
5780;BME280;2916;49.798;10.022;2023-05-09T12:11:07;149882.75;;;22.81;38.22
5780;BME280;2916;49.798;10.022;2023-05-09T12:13:44;149912.81;;;22.93;38.18
5780;BME280;2916;49.798;10.022;2023-05-09T12:16:12;149836.47;;;22.62;37.65
5780;BME280;2916;49.798;10.022;2023-05-09T12:18:45;149921.56;;;22.96;38.30
5780;BME280;2916;49.798;10.022;2023-05-09T12:21:12;149884.00;;;22.81;37.01
5780;BME280;2916;49.798;10.022;2023-05-09T12:23:40;149899.03;;;22.87;37.96
5780;BME280;2916;49.798;10.022;2023-05-09T12:26:07;149985.34;;;23.22;37.73
5780;BME280;2916;49.798;10.022;2023-05-09T12:28:38;150036.66;;;23.43;38.67
5780;BME280;2916;49.798;10.022;2023-05-09T12:31:06;150036.66;;;23.43;37.68
5780;BME280;2916;49.798;10.022;2023-05-09T12:33:36;150050.41;;;23.49;37.76
5780;BME280;2916;49.798;10.022;2023-05-09T12:36:07;149946.56;;;23.07;37.98
5780;BME280;2916;49.798;10.022;2023-05-09T12:38:35;149924.06;;;22.97;38.45
5780;BME280;2916;49.798;10.022;2023-05-09T12:41:04;149858.97;;;22.71;37.62
5780;BME280;2916;49.798;10.022;2023-05-09T12:43:32;149866.47;;;22.74;38.03
5780;BME280;2916;49.798;10.022;2023-05-09T12:46:03;149842.72;;;22.64;38.01
5780;BME280;2916;49.798;10.022;2023-05-09T12:48:34;149880.25;;;22.79;38.36
5780;BME280;2916;49.798;10.022;2023-05-09T12:51:04;149914.06;;;22.93;38.22
5780;BME280;2916;49.798;10.022;2023-05-09T12:53:39;149922.81;;;22.97;37.93
5780;BME280;2916;49.798;10.022;2023-05-09T12:56:12;149896.47;;;22.86;37.67
5780;BME280;2916;49.798;10.022;2023-05-09T12:58:47;149946.56;;;23.07;37.98
5780;BME280;2916;49.798;10.022;2023-05-09T13:01:18;150044.19;;;23.46;36.81
5780;BME280;2916;49.798;10.022;2023-05-09T13:03:51;150030.38;;;23.41;38.48
5780;BME280;2916;49.798;10.022;2023-05-09T13:06:18;150024.13;;;23.38;36.99
5780;BME280;2916;49.798;10.022;2023-05-09T13:08:56;150030.38;;;23.41;37.12
5780;BME280;2916;49.798;10.022;2023-05-09T13:11:26;149925.28;;;22.98;37.65
5780;BME280;2916;49.798;10.022;2023-05-09T13:13:53;149901.50;;;22.88;37.90
5780;BME280;2916;49.798;10.022;2023-05-09T13:16:22;149926.53;;;22.98;38.51
5780;BME280;2916;49.798;10.022;2023-05-09T13:18:50;150010.38;;;23.33;36.79